Time;durP1;ratioP1;P1;durP2;ratioP2;P2;SDS_P1;SDS_P2;PMS_P1;PMS_P2;Temp;Humidity;BMP_temperature;BMP_pressure;BME280_temperature;BME280_humidity;BME280_pressure;Samples;Min_cycle;Max_cycle;Signal;HPM_P1;HPM_P2
2023/08/07 00:01:26;;;;;;;3.92;1.90;;;;;;;11.76;83.51;97798.81;5050951;28;20197;-78
2023/08/07 00:03:53;;;;;;;1.73;1.52;;;;;;;11.74;83.47;97784.66;5050486;28;20273;-78
2023/08/07 00:06:19;;;;;;;2.20;2.00;;;;;;;11.77;83.12;97795.94;5050745;28;20200;-78
2023/08/07 00:08:47;;;;;;;1.58;1.48;;;;;;;11.75;83.45;97778.19;5050054;28;20990;-78
2023/08/07 00:11:13;;;;;;;3.03;1.85;;;;;;;11.72;83.58;97773.19;5050715;28;20207;-78
2023/08/07 00:13:40;;;;;;;2.97;2.00;;;;;;;11.76;83.09;97785.28;5050571;28;20244;-77
2023/08/07 00:16:07;;;;;;;2.95;1.80;;;;;;;11.75;83.47;97789.88;5050392;28;20225;-79
2023/08/07 00:18:35;;;;;;;4.10;1.80;;;;;;;11.76;83.00;97794.28;5050058;28;20627;-78
2023/08/07 00:21:02;;;;;;;3.25;1.70;;;;;;;11.86;82.72;97799.25;5050198;28;20201;-79
2023/08/07 00:23:29;;;;;;;4.57;1.77;;;;;;;11.81;82.22;97782.78;5049932;28;20315;-78
2023/08/07 00:25:55;;;;;;;4.05;2.35;;;;;;;11.81;82.52;97790.09;5050525;28;20236;-78
2023/08/07 00:28:22;;;;;;;2.60;1.70;;;;;;;11.91;82.26;97790.47;5050195;28;20252;-78
2023/08/07 00:30:49;;;;;;;2.35;1.80;;;;;;;11.93;82.06;97793.78;5050387;28;20207;-78
2023/08/07 00:33:15;;;;;;;2.42;1.50;;;;;;;11.82;81.88;97800.72;5050537;28;20231;-78
2023/08/07 00:35:44;;;;;;;2.60;1.75;;;;;;;11.87;81.99;97789.22;5049885;28;20228;-78
2023/08/07 00:38:11;;;;;;;4.47;1.60;;;;;;;11.87;81.82;97798.19;5050421;28;20638;-78
2023/08/07 00:40:39;;;;;;;3.70;1.75;;;;;;;11.92;81.20;97800.25;5049293;28;20212;-78
2023/08/07 00:43:06;;;;;;;2.03;1.80;;;;;;;11.99;81.26;97795.63;5050299;28;20205;-78
2023/08/07 00:45:38;;;;;;;3.38;1.67;;;;;;;11.91;80.86;97804.84;5050053;28;20200;-78
2023/08/07 00:48:05;;;;;;;2.60;1.70;;;;;;;11.92;80.81;97806.50;5049694;28;20228;-78
2023/08/07 00:50:32;;;;;;;3.47;1.90;;;;;;;11.83;81.47;97802.38;5050397;28;20258;-78
2023/08/07 00:53:00;;;;;;;2.60;2.13;;;;;;;11.81;80.78;97807.19;5050110;28;20205;-78
2023/08/07 00:55:27;;;;;;;2.40;1.63;;;;;;;11.92;80.42;97811.94;5050044;28;20263;-78
2023/08/07 00:57:54;;;;;;;3.00;1.80;;;;;;;11.88;80.77;97809.88;5050019;28;20220;-78
2023/08/07 01:00:21;;;;;;;2.28;1.85;;;;;;;11.84;79.98;97809.47;5050029;28;20292;-78
2023/08/07 01:02:50;;;;;;;4.55;1.75;;;;;;;11.92;80.15;97806.50;5049633;28;20721;-78
2023/08/07 01:05:18;;;;;;;2.85;2.10;;;;;;;11.97;79.77;97808.59;5049779;28;20208;-78
2023/08/07 01:07:45;;;;;;;3.97;1.65;;;;;;;11.90;79.68;97808.59;5049916;28;20724;-78
2023/08/07 01:10:13;;;;;;;4.47;1.77;;;;;;;11.92;79.67;97809.22;5050066;28;20196;-78
2023/08/07 01:12:58;;;;;;;2.70;1.75;;;;;;;11.99;79.56;97815.47;5050014;28;20211;-78
2023/08/07 01:15:31;;;;;;;2.10;1.55;;;;;;;11.92;79.21;97809.22;5049858;28;20227;-78
2023/08/07 01:17:58;;;;;;;3.85;1.88;;;;;;;11.87;79.63;97819.88;5049821;28;20767;-78
2023/08/07 01:20:25;;;;;;;3.03;2.13;;;;;;;11.87;79.76;97824.47;5050054;28;20235;-78
2023/08/07 01:22:53;;;;;;;3.05;2.03;;;;;;;11.77;80.00;97822.22;5049869;28;20565;-78
2023/08/07 01:25:20;;;;;;;2.53;1.80;;;;;;;11.67;80.48;97814.53;5049634;28;20294;-78
2023/08/07 01:27:52;;;;;;;2.00;1.60;;;;;;;11.74;80.66;97819.91;5049617;28;20225;-77
2023/08/07 01:30:22;;;;;;;5.78;2.42;;;;;;;11.82;79.95;97816.16;5050058;28;20209;-77
2023/08/07 01:33:00;;;;;;;2.78;1.67;;;;;;;11.76;79.68;97796.13;5050213;28;20232;-78
2023/08/07 01:35:29;;;;;;;2.83;1.87;;;;;;;11.83;79.34;97824.06;5049233;28;20286;-78
2023/08/07 01:37:59;;;;;;;3.25;1.75;;;;;;;11.89;79.38;97822.38;5049687;28;20541;-78
2023/08/07 01:40:27;;;;;;;2.10;1.83;;;;;;;11.77;79.88;97808.66;5049471;28;20216;-78
2023/08/07 01:42:54;;;;;;;2.25;1.88;;;;;;;11.74;79.92;97826.16;5049826;28;20290;-77
2023/08/07 01:45:25;;;;;;;2.65;1.90;;;;;;;11.77;78.93;97814.09;5049416;28;20291;-77
2023/08/07 01:47:52;;;;;;;4.03;1.70;;;;;;;11.81;78.85;97823.44;5049803;28;20286;-77
2023/08/07 01:50:19;;;;;;;1.75;1.65;;;;;;;11.81;78.68;97820.75;5049585;28;20201;-77
2023/08/07 01:52:46;;;;;;;3.65;1.80;;;;;;;11.80;78.90;97829.94;5052406;28;20300;-77
2023/08/07 01:55:14;;;;;;;2.85;1.95;;;;;;;11.85;78.97;97826.56;5052920;28;20233;-77
2023/08/07 01:57:41;;;;;;;3.13;1.77;;;;;;;11.76;78.26;97820.53;5052855;28;20260;-77
2023/08/07 02:00:09;;;;;;;3.90;2.10;;;;;;;11.81;78.49;97818.03;5052833;28;20871;-77
2023/08/07 02:02:36;;;;;;;4.50;1.60;;;;;;;11.83;78.25;97825.94;5052946;28;20255;-77
2023/08/07 02:05:03;;;;;;;2.33;1.75;;;;;;;11.77;78.31;97828.47;5052407;28;20208;-77
2023/08/07 02:07:30;;;;;;;4.38;1.85;;;;;;;11.74;78.65;97820.72;5052687;28;20750;-77
2023/08/07 02:09:56;;;;;;;2.92;1.70;;;;;;;11.75;78.38;97821.56;5053053;28;20197;-77
2023/08/07 02:12:25;;;;;;;2.88;1.65;;;;;;;11.72;77.81;97819.28;5052945;28;20647;-77
2023/08/07 02:14:52;;;;;;;1.80;1.70;;;;;;;11.82;77.61;97827.84;5051936;28;20232;-77
2023/08/07 02:17:21;;;;;;;1.98;1.80;;;;;;;11.77;77.88;97831.19;5052717;28;20271;-77
2023/08/07 02:19:48;;;;;;;1.95;1.60;;;;;;;11.81;77.65;97831.59;5052607;28;20200;-77
2023/08/07 02:22:15;;;;;;;4.07;2.38;;;;;;;11.78;77.97;97834.72;5053037;28;20284;-77
2023/08/07 02:24:41;;;;;;;3.13;1.75;;;;;;;11.73;78.89;97845.34;5052897;28;20242;-77
2023/08/07 02:27:08;;;;;;;3.15;1.83;;;;;;;11.67;79.17;97846.22;5052945;28;20315;-77
2023/08/07 02:29:37;;;;;;;3.70;1.92;;;;;;;11.60;79.45;97837.28;5052012;28;20209;-77
2023/08/07 02:32:05;;;;;;;3.50;2.00;;;;;;;11.54;79.90;97830.00;5052756;28;20229;-77
2023/08/07 02:34:31;;;;;;;3.08;1.70;;;;;;;11.58;79.91;97836.66;5052809;28;20275;-77
2023/08/07 02:36:58;;;;;;;2.67;2.08;;;;;;;11.62;79.22;97822.47;5052889;28;20236;-77
2023/08/07 02:39:25;;;;;;;3.05;1.80;;;;;;;11.60;78.98;97838.13;5052777;28;20696;-77
2023/08/07 02:41:52;;;;;;;4.15;2.10;;;;;;;11.61;79.04;97836.22;5051708;28;20300;-76
2023/08/07 02:44:19;;;;;;;3.45;2.10;;;;;;;11.67;78.82;97846.22;5051415;28;20232;-77
2023/08/07 02:46:47;;;;;;;3.05;1.75;;;;;;;11.54;79.14;97840.84;5052407;28;20243;-77
2023/08/07 02:49:14;;;;;;;4.35;1.90;;;;;;;11.50;78.48;97839.59;5052535;28;20229;-76
2023/08/07 02:51:41;;;;;;;4.68;2.10;;;;;;;11.53;78.89;97842.72;5051611;28;20213;-76
2023/08/07 02:54:08;;;;;;;4.30;2.40;;;;;;;11.54;78.88;97857.09;5051342;28;20299;-77
2023/08/07 02:56:35;;;;;;;2.90;2.15;;;;;;;11.55;78.33;97847.91;5052282;28;20244;-76
2023/08/07 02:59:02;;;;;;;3.95;2.25;;;;;;;11.47;78.09;97861.69;5052009;28;20292;-76
2023/08/07 03:01:29;;;;;;;3.65;2.22;;;;;;;11.49;78.13;97849.59;5051929;28;20776;-76
2023/08/07 03:03:57;;;;;;;2.80;2.20;;;;;;;11.42;78.30;97848.78;5051731;28;20201;-76
2023/08/07 03:06:24;;;;;;;3.83;2.20;;;;;;;11.43;78.33;97848.56;5051793;28;20229;-77
2023/08/07 03:08:51;;;;;;;4.35;2.25;;;;;;;11.36;78.21;97845.06;5052016;28;20224;-76
2023/08/07 03:11:17;;;;;;;1.95;1.60;;;;;;;11.35;78.43;97856.94;5052528;28;20275;-76
2023/08/07 03:13:45;;;;;;;3.58;2.00;;;;;;;11.42;78.66;97856.91;5053221;28;20204;-76
2023/08/07 03:16:11;;;;;;;2.67;2.03;;;;;;;11.47;78.29;97850.84;5053233;28;20234;-77
2023/08/07 03:18:38;;;;;;;4.05;2.00;;;;;;;11.48;78.30;97855.22;5053928;28;20248;-76
2023/08/07 03:21:07;;;;;;;4.13;2.10;;;;;;;11.49;77.94;97856.91;5054849;28;20244;-76
2023/08/07 03:23:34;;;;;;;3.63;2.28;;;;;;;11.52;77.81;97848.34;5055038;28;20674;-76
2023/08/07 03:26:04;;;;;;;2.35;1.98;;;;;;;11.46;78.01;97852.72;5054911;28;20254;-76
2023/08/07 03:28:31;;;;;;;3.00;1.80;;;;;;;11.50;77.72;97866.69;5052692;28;20905;-77
2023/08/07 03:30:58;;;;;;;2.30;1.70;;;;;;;11.43;78.35;97859.41;5051324;28;20247;-76
2023/08/07 03:33:24;;;;;;;4.57;1.92;;;;;;;11.55;78.16;97854.19;5050846;28;20201;-76
2023/08/07 03:35:51;;;;;;;4.63;2.28;;;;;;;11.45;78.22;97857.31;5050312;28;20229;-76
2023/08/07 03:38:19;;;;;;;3.67;2.20;;;;;;;11.40;78.40;97849.00;5050448;28;20241;-77
2023/08/07 03:40:46;;;;;;;4.72;2.20;;;;;;;11.42;78.56;97860.44;5051107;28;20236;-76
2023/08/07 03:43:13;;;;;;;2.55;2.00;;;;;;;11.43;79.14;97856.69;5050251;28;20760;-76
2023/08/07 03:45:40;;;;;;;3.35;2.15;;;;;;;11.50;78.53;97856.69;5050491;28;20204;-76
2023/08/07 03:48:07;;;;;;;4.68;2.65;;;;;;;11.54;78.38;97870.66;5050081;28;20231;-76
2023/08/07 03:50:37;;;;;;;4.20;2.28;;;;;;;11.55;78.22;97864.19;5050354;28;20740;-77
2023/08/07 03:53:06;;;;;;;5.45;2.47;;;;;;;11.60;78.04;97862.50;5050199;28;20235;-76
2023/08/07 03:55:35;;;;;;;2.72;2.10;;;;;;;11.60;77.92;97858.97;5049646;28;20236;-76
2023/08/07 03:58:02;;;;;;;4.47;2.40;;;;;;;11.60;77.55;97862.50;5050037;28;20581;-76
2023/08/07 04:00:28;;;;;;;2.22;1.90;;;;;;;11.61;77.87;97872.31;5049994;28;20274;-76
2023/08/07 04:02:55;;;;;;;3.35;2.47;;;;;;;11.62;77.93;97854.16;5050200;28;20512;-76
2023/08/07 04:05:22;;;;;;;3.53;2.10;;;;;;;11.60;78.13;97864.38;5050373;28;20295;-76
2023/08/07 04:07:49;;;;;;;3.22;1.98;;;;;;;11.58;77.91;97861.06;5050140;28;20278;-77
2023/08/07 04:10:16;;;;;;;5.10;2.17;;;;;;;11.60;77.94;97862.50;5050238;28;20231;-77
2023/08/07 04:12:44;;;;;;;2.05;1.65;;;;;;;11.56;77.98;97866.69;5050114;28;20207;-76
2023/08/07 04:15:11;;;;;;;4.10;2.00;;;;;;;11.62;77.88;97878.56;5048936;28;20218;-77
2023/08/07 04:17:37;;;;;;;4.88;2.50;;;;;;;11.75;76.77;97878.50;5050178;28;20255;-76
2023/08/07 04:20:06;;;;;;;2.42;1.90;;;;;;;11.76;76.33;97882.88;5049796;28;20589;-76
2023/08/07 04:22:33;;;;;;;4.75;2.10;;;;;;;11.76;76.59;97877.47;5049762;28;20605;-76
2023/08/07 04:25:00;;;;;;;3.30;2.10;;;;;;;11.83;76.27;97878.31;5048933;28;20645;-76
2023/08/07 04:27:27;;;;;;;7.90;1.83;;;;;;;11.78;76.86;97880.81;5049923;28;20315;-76
2023/08/07 04:29:55;;;;;;;5.28;1.65;;;;;;;11.78;75.77;97881.66;5049380;28;20203;-76
2023/08/07 04:32:22;;;;;;;3.22;1.83;;;;;;;11.87;75.93;97893.09;5049816;28;20338;-76
2023/08/07 04:34:49;;;;;;;3.72;1.90;;;;;;;11.83;76.16;97894.56;5049506;28;20201;-77
2023/08/07 04:37:16;;;;;;;3.33;1.92;;;;;;;11.81;76.35;97885.81;5048957;28;20341;-76
2023/08/07 04:39:43;;;;;;;3.65;1.90;;;;;;;11.86;76.25;97888.72;5049738;28;20260;-76
2023/08/07 04:42:10;;;;;;;2.63;1.80;;;;;;;11.81;76.85;97891.25;5049404;28;20568;-77
2023/08/07 04:44:37;;;;;;;2.28;1.80;;;;;;;11.88;76.41;97886.63;5049432;28;20201;-77
2023/08/07 04:47:06;;;;;;;2.47;1.98;;;;;;;11.95;76.28;97902.88;5049128;28;20221;-76
2023/08/07 04:49:33;;;;;;;3.55;1.90;;;;;;;11.88;76.75;97894.78;5049076;28;20291;-76
2023/08/07 04:51:59;;;;;;;3.10;1.90;;;;;;;11.98;76.63;97905.19;5049223;28;20228;-76
2023/08/07 04:54:26;;;;;;;4.05;2.05;;;;;;;11.80;77.12;97899.59;5049255;28;20204;-76
2023/08/07 04:56:53;;;;;;;5.20;1.90;;;;;;;11.89;76.53;97903.75;5049325;28;20565;-76
2023/08/07 04:59:20;;;;;;;4.20;1.95;;;;;;;11.90;76.78;97902.69;5048926;28;20260;-76
2023/08/07 05:01:46;;;;;;;3.97;2.05;;;;;;;11.95;76.74;97911.03;5049467;28;20287;-76
2023/08/07 05:04:15;;;;;;;1.92;1.73;;;;;;;11.91;76.82;97904.34;5049009;28;20506;-77
2023/08/07 05:06:41;;;;;;;3.10;2.17;;;;;;;11.96;76.61;97909.97;5048967;28;20305;-77
2023/08/07 05:09:08;;;;;;;2.25;2.00;;;;;;;11.93;76.58;97913.94;5049166;28;20231;-77
2023/08/07 05:11:35;;;;;;;3.80;1.90;;;;;;;12.00;76.71;97914.75;5048960;28;20219;-76
2023/08/07 05:14:02;;;;;;;3.20;1.90;;;;;;;12.01;76.62;97918.31;5048827;28;20247;-77
2023/08/07 05:16:28;;;;;;;3.22;2.30;;;;;;;12.00;76.49;97919.34;5048889;28;20231;-76
2023/08/07 05:18:55;;;;;;;2.40;2.00;;;;;;;11.93;77.01;97915.84;5048698;28;20676;-76
2023/08/07 05:21:23;;;;;;;6.30;2.83;;;;;;;11.89;76.85;97915.41;5049070;28;20205;-77
2023/08/07 05:23:53;;;;;;;4.15;2.20;;;;;;;12.03;76.74;97917.03;5048643;28;20201;-77
2023/08/07 05:26:20;;;;;;;4.40;2.20;;;;;;;12.05;76.45;97914.94;5051527;28;20239;-77
2023/08/07 05:28:47;;;;;;;3.22;1.80;;;;;;;12.06;76.44;97913.88;5052786;28;20200;-77
2023/08/07 05:31:13;;;;;;;4.30;1.88;;;;;;;12.23;76.28;97922.38;5052665;28;20213;-77
2023/08/07 05:33:40;;;;;;;2.50;1.85;;;;;;;12.26;76.13;97929.25;5052136;28;20202;-77
2023/08/07 05:36:07;;;;;;;2.83;1.80;;;;;;;12.27;75.77;97922.78;5052625;28;20222;-77
2023/08/07 05:38:35;;;;;;;3.75;2.22;;;;;;;12.37;75.78;97925.84;5052617;28;20229;-77
2023/08/07 05:41:02;;;;;;;1.85;1.75;;;;;;;12.49;75.34;97918.69;5052695;28;20205;-77
2023/08/07 05:43:29;;;;;;;3.08;2.03;;;;;;;12.41;75.00;97925.22;5052538;28;20237;-76
2023/08/07 05:45:55;;;;;;;2.13;1.92;;;;;;;12.48;74.38;97932.50;5052554;28;20213;-77
2023/08/07 05:48:22;;;;;;;5.68;2.10;;;;;;;12.42;74.07;97926.03;5052218;28;20316;-77
2023/08/07 05:50:49;;;;;;;2.15;1.80;;;;;;;12.42;74.31;97942.31;5052586;28;20279;-76
2023/08/07 05:53:16;;;;;;;2.42;1.75;;;;;;;12.48;73.76;97940.63;5052078;28;20724;-77
2023/08/07 05:55:44;;;;;;;4.22;1.80;;;;;;;12.58;73.20;97939.13;5052113;28;20208;-76
2023/08/07 05:58:11;;;;;;;3.88;2.10;;;;;;;12.64;72.81;97942.84;5052221;28;20279;-76
2023/08/07 06:00:38;;;;;;;2.50;1.60;;;;;;;12.78;72.32;97942.53;5052273;28;20741;-77
2023/08/07 06:03:05;;;;;;;3.30;2.20;;;;;;;12.72;72.15;97946.13;5052272;28;20447;-76
2023/08/07 06:05:32;;;;;;;4.00;1.85;;;;;;;12.81;72.21;97946.69;5052025;28;20465;-77
2023/08/07 06:07:58;;;;;;;3.97;2.10;;;;;;;12.86;72.28;97943.34;5052211;28;20613;-76
2023/08/07 06:10:25;;;;;;;3.17;1.73;;;;;;;12.91;71.70;97947.06;5052127;28;20451;-76
2023/08/07 06:12:54;;;;;;;2.27;1.60;;;;;;;12.95;71.32;97961.03;5051757;28;20443;-76
2023/08/07 06:15:20;;;;;;;3.00;2.00;;;;;;;12.89;72.07;97964.63;5051859;28;20501;-77
2023/08/07 06:17:47;;;;;;;2.90;1.90;;;;;;;12.98;71.61;97957.91;5051923;28;20246;-76
2023/08/07 06:20:15;;;;;;;3.53;1.90;;;;;;;13.00;71.63;97958.47;5051959;28;20552;-76
2023/08/07 06:22:42;;;;;;;4.23;1.97;;;;;;;12.86;71.22;97925.16;5051889;28;20448;-77
2023/08/07 06:25:10;;;;;;;2.00;1.70;;;;;;;12.97;71.76;97969.81;5051675;28;20482;-76
2023/08/07 06:27:36;;;;;;;2.20;1.70;;;;;;;13.04;71.75;97965.13;5051646;28;20474;-76
2023/08/07 06:30:05;;;;;;;3.20;1.80;;;;;;;13.06;71.71;97971.19;5051691;28;20467;-77
2023/08/07 06:32:32;;;;;;;4.10;2.20;;;;;;;13.07;71.15;97970.13;5051806;28;20448;-77
2023/08/07 06:34:59;;;;;;;3.42;2.08;;;;;;;13.22;71.30;97953.56;5051258;28;20194;-76
2023/08/07 06:37:25;;;;;;;4.87;2.47;;;;;;;13.23;70.56;97961.50;5050449;28;20287;-76
2023/08/07 06:39:52;;;;;;;2.20;1.80;;;;;;;13.17;71.11;97956.94;5051367;28;20452;-76
2023/08/07 06:42:19;;;;;;;3.10;2.00;;;;;;;13.07;70.95;97962.81;5051246;28;20535;-76
2023/08/07 06:44:46;;;;;;;3.17;1.87;;;;;;;13.02;71.41;97970.78;5051224;28;20521;-76
2023/08/07 06:47:14;;;;;;;2.30;1.60;;;;;;;13.05;71.11;97969.53;5051012;28;20989;-76
2023/08/07 06:49:41;;;;;;;2.33;1.67;;;;;;;12.99;71.03;97965.00;5051360;28;20952;-77
2023/08/07 06:52:08;;;;;;;1.55;1.45;;;;;;;13.18;70.28;97969.47;5051184;28;20552;-77
2023/08/07 06:54:35;;;;;;;4.97;1.93;;;;;;;13.16;69.36;97974.28;5050742;28;20507;-77
2023/08/07 06:57:02;;;;;;;2.20;2.00;;;;;;;13.15;68.54;97969.88;5050613;28;21159;-77
2023/08/07 06:59:29;;;;;;;3.13;2.00;;;;;;;13.27;67.70;97987.19;5050959;28;20913;-76
2023/08/07 07:01:56;;;;;;;4.80;1.77;;;;;;;13.35;66.65;97981.44;5050972;28;20495;-76
2023/08/07 07:04:24;;;;;;;1.90;1.70;;;;;;;13.62;66.68;97981.25;5050889;28;20492;-77
2023/08/07 07:06:51;;;;;;;2.20;1.53;;;;;;;13.64;66.99;97987.31;5050932;28;20470;-77
2023/08/07 07:09:17;;;;;;;2.83;2.10;;;;;;;13.70;66.70;97989.09;5050670;28;20892;-77
2023/08/07 07:11:44;;;;;;;2.90;1.63;;;;;;;14.04;64.87;97980.41;5051025;28;20441;-74
2023/08/07 07:14:11;;;;;;;3.03;1.83;;;;;;;13.83;65.55;97978.09;5050451;28;20557;-77
2023/08/07 07:16:38;;;;;;;2.47;1.83;;;;;;;13.85;64.66;97992.31;5050457;28;21042;-77
2023/08/07 07:19:06;;;;;;;1.90;1.40;;;;;;;14.05;63.63;97984.78;5050611;28;20485;-77
2023/08/07 07:21:35;;;;;;;1.77;1.47;;;;;;;14.15;63.00;97992.44;5050991;28;20477;-77
2023/08/07 07:24:02;;;;;;;3.30;1.60;;;;;;;14.17;63.39;97994.94;5050137;28;20438;-77
2023/08/07 07:26:29;;;;;;;3.00;1.77;;;;;;;14.00;64.13;97994.66;5050773;28;20477;-77
2023/08/07 07:28:56;;;;;;;2.53;1.97;;;;;;;13.69;64.25;97968.41;5050769;28;20468;-77
2023/08/07 07:31:23;;;;;;;3.53;1.60;;;;;;;13.90;64.51;98000.66;5050206;28;20505;-77
2023/08/07 07:33:50;;;;;;;2.80;1.60;;;;;;;13.79;64.63;98010.38;5049808;28;21072;-77
2023/08/07 07:36:17;;;;;;;4.17;2.00;;;;;;;13.88;64.91;97999.22;5050070;28;20561;-77
2023/08/07 07:38:46;;;;;;;4.97;1.60;;;;;;;13.95;65.45;98006.25;5050052;28;20475;-77
2023/08/07 07:41:12;;;;;;;2.40;1.40;;;;;;;14.02;65.28;98015.16;5050348;28;21056;-77
2023/08/07 07:43:39;;;;;;;3.17;1.63;;;;;;;14.36;64.79;98018.38;5050126;28;20442;-77
2023/08/07 07:46:06;;;;;;;3.77;1.90;;;;;;;14.57;64.42;98006.22;5049873;28;20544;-77
2023/08/07 07:48:33;;;;;;;2.00;1.50;;;;;;;14.55;64.68;98011.91;5049741;28;20500;-77
2023/08/07 07:51:00;;;;;;;1.83;1.70;;;;;;;14.39;66.10;98020.63;5049942;28;21368;-77
2023/08/07 07:53:27;;;;;;;3.47;1.57;;;;;;;14.52;65.57;98011.53;5049646;28;20518;-77
2023/08/07 07:55:55;;;;;;;2.47;1.70;;;;;;;14.36;66.25;98015.63;5050097;28;20454;-77
2023/08/07 07:58:22;;;;;;;3.07;1.90;;;;;;;14.41;65.62;98013.94;5049596;28;20514;-77
2023/08/07 08:00:52;;;;;;;2.20;1.67;;;;;;;14.28;65.88;98024.13;5050061;28;20455;-77
2023/08/07 08:03:19;;;;;;;3.10;1.87;;;;;;;14.34;65.42;98017.75;5050108;28;20439;-77
2023/08/07 08:05:45;;;;;;;2.40;1.67;;;;;;;14.50;64.75;98016.38;5049898;28;20446;-77
2023/08/07 08:08:12;;;;;;;2.10;1.77;;;;;;;14.50;63.80;98016.38;5049637;28;20830;-77
2023/08/07 08:10:39;;;;;;;2.27;1.80;;;;;;;14.51;62.68;98027.03;5049481;28;20516;-77
2023/08/07 08:13:09;;;;;;;2.33;1.70;;;;;;;14.34;63.19;98034.94;5049814;28;20530;-76
2023/08/07 08:15:36;;;;;;;2.93;1.90;;;;;;;14.35;63.50;98035.75;5049187;28;20439;-77
2023/08/07 08:18:04;;;;;;;2.33;2.13;;;;;;;14.36;63.24;98037.41;5049242;28;20535;-77
2023/08/07 08:20:32;;;;;;;3.47;2.07;;;;;;;14.27;63.29;98036.06;5049664;28;20455;-77
2023/08/07 08:22:59;;;;;;;3.50;1.60;;;;;;;14.44;63.18;98040.72;5049776;28;20790;-77
2023/08/07 08:25:26;;;;;;;2.93;1.47;;;;;;;14.45;63.69;98042.38;5049258;28;20454;-77
2023/08/07 08:27:52;;;;;;;4.13;1.80;;;;;;;14.62;63.21;98048.03;5049104;28;20538;-77
2023/08/07 08:30:21;;;;;;;2.73;1.80;;;;;;;14.60;62.84;98039.28;5049626;28;20542;-77
2023/08/07 08:32:48;;;;;;;3.07;2.10;;;;;;;14.67;63.07;98045.47;5049572;28;20466;-77
2023/08/07 08:35:14;;;;;;;2.40;1.67;;;;;;;14.80;62.48;98044.47;5048736;28;20443;-77
2023/08/07 08:37:41;;;;;;;2.20;1.70;;;;;;;14.74;62.26;98035.31;5049184;28;20555;-77
2023/08/07 08:40:11;;;;;;;3.50;1.57;;;;;;;14.79;61.31;98042.81;5049388;28;20490;-77
2023/08/07 08:42:39;;;;;;;2.07;1.70;;;;;;;15.03;60.01;98039.13;5049311;28;20479;-77
2023/08/07 08:45:10;;;;;;;3.50;1.73;;;;;;;15.24;59.48;98039.72;5048803;28;20431;-77
2023/08/07 08:47:39;;;;;;;2.50;1.40;;;;;;;15.50;58.32;98039.31;5049307;28;20831;-77
2023/08/07 08:50:08;;;;;;;1.50;1.40;;;;;;;15.46;57.01;98038.09;5049545;28;20549;-77
2023/08/07 08:52:36;;;;;;;2.17;1.13;;;;;;;15.36;57.30;98060.47;5049060;28;20542;-77
2023/08/07 08:55:03;;;;;;;1.93;1.60;;;;;;;15.68;57.39;98052.06;5049287;28;20528;-77
2023/08/07 08:57:31;;;;;;;3.43;1.57;;;;;;;15.79;57.01;98059.44;5048971;28;20505;-77
2023/08/07 08:59:58;;;;;;;2.67;1.63;;;;;;;15.96;55.73;98060.38;5049555;28;20473;-77
2023/08/07 09:02:24;;;;;;;2.20;1.40;;;;;;;16.01;54.89;98052.31;5053197;28;20490;-77
2023/08/07 09:04:52;;;;;;;3.13;1.47;;;;;;;15.93;54.28;98060.03;5052795;28;21008;-77
2023/08/07 09:07:20;;;;;;;2.33;1.63;;;;;;;15.96;53.52;98067.75;5053226;28;20499;-77
2023/08/07 09:09:48;;;;;;;1.47;1.33;;;;;;;15.98;54.58;98063.72;5053502;28;20450;-77
2023/08/07 09:12:18;;;;;;;1.57;1.20;;;;;;;16.14;54.82;98064.94;5053071;28;20543;-77
2023/08/07 09:14:45;;;;;;;3.37;1.60;;;;;;;16.13;55.57;98063.25;5052426;28;20604;-77
2023/08/07 09:17:13;;;;;;;2.03;1.70;;;;;;;16.14;55.47;98073.13;5052991;28;20583;-77
2023/08/07 09:19:40;;;;;;;2.57;1.43;;;;;;;16.24;54.88;98088.94;5053196;28;20512;-77
2023/08/07 09:22:08;;;;;;;1.37;1.27;;;;;;;15.89;54.73;98083.44;5052933;28;20517;-76
2023/08/07 09:24:35;;;;;;;2.63;1.60;;;;;;;15.87;54.49;98089.13;5052377;28;20881;-77
2023/08/07 09:27:02;;;;;;;1.47;1.37;;;;;;;16.23;54.58;98092.72;5052282;28;20499;-77
2023/08/07 09:29:29;;;;;;;1.97;1.37;;;;;;;16.17;53.51;98083.56;5052866;28;20475;-77
2023/08/07 09:31:56;;;;;;;2.10;1.37;;;;;;;16.29;54.11;98076.19;5052948;28;20445;-77
2023/08/07 09:34:22;;;;;;;4.53;1.53;;;;;;;16.30;53.15;98082.50;5052346;28;20538;-77
2023/08/07 09:36:49;;;;;;;3.20;1.63;;;;;;;16.34;54.18;98083.69;5052184;28;20528;-76
2023/08/07 09:39:24;;;;;;;3.07;1.50;;;;;;;16.64;53.07;98078.09;5052212;28;20548;-77
2023/08/07 09:41:52;;;;;;;1.67;1.40;;;;;;;17.00;51.99;98087.88;5053025;28;20478;-77
2023/08/07 09:44:18;;;;;;;5.47;1.77;;;;;;;17.03;52.05;98088.25;5052139;28;20976;-77
2023/08/07 09:46:45;;;;;;;1.73;1.37;;;;;;;16.85;52.35;98077.47;5052384;28;20894;-77
2023/08/07 09:49:12;;;;;;;1.97;1.63;;;;;;;16.57;51.80;98099.25;5052491;28;20470;-77
2023/08/07 09:51:43;;;;;;;1.73;1.60;;;;;;;16.39;51.78;98092.00;5052264;28;20798;-76
2023/08/07 09:54:10;;;;;;;1.50;1.40;;;;;;;16.77;51.21;98096.97;5051587;28;20447;-77
2023/08/07 09:56:39;;;;;;;1.83;1.20;;;;;;;17.16;49.91;98102.72;5052401;28;20828;-77
2023/08/07 09:59:06;;;;;;;2.73;1.60;;;;;;;16.93;50.55;98098.94;5052396;28;20490;-77
2023/08/07 10:01:33;;;;;;;2.10;1.40;;;;;;;17.25;49.24;98102.06;5051935;28;20444;-77
2023/08/07 10:04:00;;;;;;;2.90;1.60;;;;;;;17.30;48.16;98095.88;5051673;28;20455;-77
2023/08/07 10:06:27;;;;;;;4.20;1.10;;;;;;;17.84;47.48;98091.72;5051988;28;20491;-76
2023/08/07 10:08:53;;;;;;;1.47;1.37;;;;;;;18.58;47.02;98094.25;5051954;28;20475;-77
2023/08/07 10:11:20;;;;;;;2.37;1.40;;;;;;;19.57;45.12;98094.16;5051564;28;20539;-77
2023/08/07 10:13:48;;;;;;;1.77;1.67;;;;;;;19.89;43.42;98092.28;5050838;28;20929;-77
2023/08/07 10:16:15;;;;;;;1.90;1.40;;;;;;;19.80;43.70;98102.13;5052097;28;20473;-77
2023/08/07 10:18:42;;;;;;;3.33;1.50;;;;;;;18.47;45.05;98104.25;5051625;28;20497;-77
2023/08/07 10:21:09;;;;;;;2.23;1.47;;;;;;;17.92;46.31;98096.78;5051750;28;20541;-77
2023/08/07 10:23:36;;;;;;;1.33;1.23;;;;;;;17.93;47.16;98103.91;5051718;28;20868;-77
2023/08/07 10:26:05;;;;;;;2.70;1.60;;;;;;;18.16;47.25;98099.38;5051532;28;20866;-77
2023/08/07 10:28:34;;;;;;;2.50;1.80;;;;;;;17.96;47.45;98097.94;5051407;28;21092;-77
2023/08/07 10:31:02;;;;;;;1.50;1.40;;;;;;;17.94;46.74;98100.09;5052139;28;20532;-77
2023/08/07 10:33:29;;;;;;;3.60;1.60;;;;;;;17.48;47.81;98095.69;5051104;28;20435;-77
2023/08/07 10:35:59;;;;;;;2.13;1.60;;;;;;;17.74;47.77;98097.00;5051179;28;20833;-78
2023/08/07 10:38:26;;;;;;;1.83;1.47;;;;;;;17.30;48.63;98102.19;5051889;28;20536;-77
2023/08/07 10:41:01;;;;;;;3.27;1.80;;;;;;;17.08;49.33;98112.13;5051165;28;21010;-77
2023/08/07 10:43:28;;;;;;;1.97;1.70;;;;;;;16.91;50.02;98111.19;5051348;28;20449;-77
2023/08/07 10:45:55;;;;;;;1.40;1.27;;;;;;;16.79;50.55;98109.34;5051397;28;20551;-77
2023/08/07 10:48:23;;;;;;;2.20;1.53;;;;;;;17.04;50.57;98108.22;5051260;28;20537;-77
2023/08/07 10:50:52;;;;;;;1.70;1.60;;;;;;;17.12;50.32;98100.47;5051424;28;20447;-77
2023/08/07 10:53:30;;;;;;;1.50;1.40;;;;;;;17.03;50.23;98103.81;5051146;28;20535;-77
2023/08/07 10:55:57;;;;;;;2.70;1.60;;;;;;;16.85;50.72;98101.25;5051351;28;20467;-77
2023/08/07 10:58:25;;;;;;;2.80;1.60;;;;;;;16.99;49.54;98105.38;5051027;28;20491;-77
2023/08/07 11:00:53;;;;;;;2.70;1.63;;;;;;;17.23;48.64;98104.22;5050887;28;20479;-77
2023/08/07 11:03:30;;;;;;;2.03;1.23;;;;;;;16.74;48.92;98111.97;5051099;28;20451;-77
2023/08/07 11:05:58;;;;;;;1.80;1.40;;;;;;;16.68;49.76;98112.91;5050704;28;20538;-77
2023/08/07 11:08:25;;;;;;;2.70;1.70;;;;;;;16.28;49.52;98109.19;5051201;28;20445;-77
2023/08/07 11:10:52;;;;;;;2.00;1.60;;;;;;;16.08;50.27;98129.50;5050934;28;20447;-77
2023/08/07 11:13:19;;;;;;;2.53;1.60;;;;;;;16.08;50.26;98132.22;5050554;28;20519;-77
2023/08/07 11:15:46;;;;;;;1.70;1.60;;;;;;;15.87;50.23;98123.78;5050969;28;20463;-77
2023/08/07 11:18:13;;;;;;;2.10;1.80;;;;;;;16.06;51.10;98126.19;5050797;28;20576;-77
2023/08/07 11:20:42;;;;;;;3.47;1.70;;;;;;;16.08;50.54;98128.66;5050619;28;20436;-77
2023/08/07 11:23:08;;;;;;;2.03;1.57;;;;;;;16.14;50.67;98122.28;5050363;28;20983;-77
2023/08/07 11:25:35;;;;;;;2.97;1.80;;;;;;;16.39;50.67;98119.31;5050138;28;20455;-77
2023/08/07 11:28:02;;;;;;;1.70;1.60;;;;;;;16.43;50.16;98126.81;5050772;28;20581;-77
2023/08/07 11:30:29;;;;;;;1.70;1.60;;;;;;;16.51;49.98;98114.69;5050298;28;21002;-77
2023/08/07 11:32:55;;;;;;;2.17;1.80;;;;;;;16.43;50.10;98121.34;5050567;28;20479;-77
2023/08/07 11:35:23;;;;;;;1.77;1.40;;;;;;;16.54;50.16;98111.47;5049933;28;20531;-77